Buoy 16575

sailwx.info

Track history (hours):
 
Tides and Currents Weather Stations Pressure Air Temp Water Temp Dewpoint Dewpoint Depression Visibility Wind Speed Wind Dir Waves Ship Positions

Drifting buoy 16575

Last reported at 2014-Aug-22 06:50 UTC. Time now 2014-Aug-22 07:58 UTC.
Position S 27°59' E 057°54'.

Barometer 1017.1 mb
Water temperature 21.5 ° C

Date/timePositionNaut miles runAvg speedWind from/ knotsBaromVisibWave heightAir tempDewpointWater temp
2014-Aug-22 06:50S 27°59' E 057°54'0 0.0 1017.1 21.5
2014-Aug-22 05:50S 27°59' E 057°54'3 1.7 1020.7 21.5
2014-Aug-22 03:50S 27°56' E 057°56'3 1.4 1027.1 21.4
2014-Aug-22 01:50S 27°54' E 057°57'2 2.0 1018.3 21.3
2014-Aug-22 00:50S 27°52' E 057°58'0 0.0 1018.2 21.3
2014-Aug-21 23:50S 27°52' E 057°58'2 2.0 1018.3 21.3
2014-Aug-21 22:50S 27°50' E 057°58'1 0.9 1018.2 21.3
2014-Aug-21 21:50S 27°49' E 057°58'2 1.2 1018.9 21.3
2014-Aug-21 19:50S 27°47' E 057°57'2 2.2 1019.3 21.3
2014-Aug-21 18:50S 27°45' E 057°56'1 0.9 1019.4 21.3
2014-Aug-21 17:50S 27°44' E 057°55'1 1.2 1018.8 21.4
2014-Aug-21 16:50S 27°44' E 057°54'3 1.4 1021.3 21.4
2014-Aug-21 14:50S 27°42' E 057°51'2 2.5 1018.5 21.4
2014-Aug-21 13:50S 27°43' E 057°49'1 0.7 1015.7 21.5
2014-Aug-21 12:50S 27°43' E 057°48'2 2.5 1019.8 21.5
2014-Aug-21 11:50S 27°44' E 057°45'1 1.1 1017.2 21.5
2014-Aug-21 10:50S 27°44' E 057°44'3 3.0 1022.1 21.5
2014-Aug-21 09:50S 27°46' E 057°41'4 3.9 1018.1 21.5
2014-Aug-21 08:50S 27°47' E 057°37'2 0.5 1027.2 21.5
2014-Aug-21 05:50S 27°49' E 057°36'1 1.4 1028.8 21.5
2014-Aug-21 04:50S 27°50' E 057°35'1 1.2 1028.6 21.6
2014-Aug-21 03:50S 27°50' E 057°34'2 1.8 1023.7 21.6
2014-Aug-21 02:50S 27°51' E 057°32'1 1.0 1025.2 21.6
2014-Aug-21 01:50S 27°52' E 057°31'1 0.8 1021.6 21.6
2014-Aug-21 00:50S 27°52' E 057°31'1 1.4 1022.7 21.7
2014-Aug-20 23:50S 27°54' E 057°30'0 0.1 1023.2 21.7
2014-Aug-20 22:50S 27°54' E 057°30'1 0.7 1023.7 21.8
2014-Aug-20 21:50S 27°54' E 057°30'2 1.7 1023.1 21.8
2014-Aug-20 20:50S 27°56' E 057°30'2 2.2 1024.3 21.8
2014-Aug-20 19:50S 27°58' E 057°29'2 1.2 1024.4 21.8
2014-Aug-20 17:50S 28°01' E 057°28'1 1.1 1025.9 21.9
2014-Aug-20 16:50S 28°02' E 057°28'4 1.3 1025.5 21.9
2014-Aug-20 13:50S 28°05' E 057°26'2 2.2 1021.9 22.0
2014-Aug-20 12:50S 28°07' E 057°25'1 0.9 1023.0 22.0
2014-Aug-20 11:50S 28°08' E 057°24'3 3.3 1019.8 22.0
2014-Aug-20 10:50S 28°11' E 057°22'0 0.0 1023.9 22.0
2014-Aug-20 09:50S 28°11' E 057°22'0 0.0 1025.0 22.0
2014-Aug-20 08:50S 28°11' E 057°22'4 1.4 1026.8 21.9
2014-Aug-20 05:50S 28°14' E 057°19'1 1.0 1031.5 21.9
2014-Aug-20 04:50S 28°14' E 057°18'2 2.5 1034.1 21.8
2014-Aug-20 03:50S 28°15' E 057°15'0 0.0 1031.5 21.8
2014-Aug-20 02:50S 28°15' E 057°15'1 1.3 1029.8 21.8
2014-Aug-20 01:50S 28°15' E 057°14'0 0.4 1028.9 21.9
2014-Aug-20 00:50S 28°15' E 057°13'1 0.7 1029.3 21.8
2014-Aug-19 22:50S 28°16' E 057°12'0 0.0 1029.0 21.6
2014-Aug-19 21:50S 28°16' E 057°12'3 1.0 1030.9 21.6
2014-Aug-19 18:50S 28°19' E 057°12'0 0.0 1030.6 21.6
2014-Aug-19 17:50S 28°19' E 057°12'1 0.9 1030.3 21.6
2014-Aug-19 16:50S 28°20' E 057°12'2 1.2 1030.4 21.6
2014-Aug-19 14:50S 28°22' E 057°11'1 1.1 1029.3 21.7
2014-Aug-19 13:50S 28°23' E 057°11'1 0.5 1026.3 21.8
2014-Aug-19 12:50S 28°24' E 057°10'2 2.2 1024.2 21.8
2014-Aug-19 11:50S 28°26' E 057°09'2 2.3 1026.5 21.8
2014-Aug-19 10:50S 28°27' E 057°07'0 0.0 1027.3 21.8
2014-Aug-19 08:50S 28°27' E 057°07'6 1.9 1032.5 21.8
2014-Aug-19 05:50S 28°30' E 057°01'1 0.9 1038.5 21.8
2014-Aug-19 04:50S 28°30' E 057°01'1 0.7 1040.2 21.8
2014-Aug-19 02:50S 28°31' E 056°59'1 1.5 1031.1 21.8
2014-Aug-19 01:50S 28°31' E 056°57'1 0.8 1032.4 21.8
2014-Aug-19 00:50S 28°31' E 056°56'1 1.4 1031.1 21.8
2014-Aug-18 23:50S 28°31' E 056°55'0 0.4 1032.0 21.9
2014-Aug-18 22:50S 28°31' E 056°54'2 0.8 1032.3 21.9
2014-Aug-18 20:50S 28°32' E 056°53'3 2.8 1031.9 21.9
2014-Aug-18 19:50S 28°33' E 056°50'0 0.2 1032.1 21.9
2014-Aug-18 17:50S 28°34' E 056°50'1 1.1 1032.1 21.8
2014-Aug-18 16:50S 28°34' E 056°49'1 0.8 1032.1 21.8
2014-Aug-18 15:50S 28°35' E 056°48'0 0.0 1031.8 21.8
2014-Aug-18 14:50S 28°35' E 056°48'2 1.7 1029.9 21.9
2014-Aug-18 13:50S 28°36' E 056°48'2 2.0 1027.8 21.9
2014-Aug-18 12:50S 28°38' E 056°46'1 1.0 1025.1 21.9
2014-Aug-18 11:50S 28°39' E 056°46'0 0.0 1031.5 22.0
2014-Aug-18 10:50S 28°39' E 056°46'3 2.7 1031.0 22.0
2014-Aug-18 09:50S 28°41' E 056°44'6 5.5 1031.0 22.0
2014-Aug-18 08:50S 28°43' E 056°39'0 0.0 1032.4 22.1
2014-Aug-18 05:50S 28°43' E 056°39'2 1.8 1035.6 22.0
2014-Aug-18 04:50S 28°44' E 056°36'2 2.4 1033.0 22.0
2014-Aug-18 03:50S 28°44' E 056°34'0 0.0 1034.0 21.9
2014-Aug-18 02:50S 28°44' E 056°34'1 1.1 1030.4 21.9
2014-Aug-18 01:50S 28°45' E 056°33'0 0.2 1030.7 21.9
2014-Aug-18 00:50S 28°45' E 056°33'5 1.2 1029.6 21.9
2014-Aug-17 20:50S 28°46' E 056°28'3 1.5 1029.7 21.9
2014-Aug-17 18:50S 28°47' E 056°25'1 0.7 1029.6 21.9
2014-Aug-17 17:50S 28°47' E 056°24'4 4.3 1029.7 21.9
2014-Aug-17 16:50S 28°49' E 056°19'0 0.0 1029.8 21.8
2014-Aug-17 13:50S 28°49' E 056°19'3 1.4 1026.0 21.6
2014-Aug-17 11:50S 28°50' E 056°16'0 0.0 1024.2 21.2
2014-Aug-17 10:50S 28°50' E 056°16'5 4.6 1026.5 21.1
2014-Aug-17 09:50S 28°52' E 056°11'1 0.2 1026.1 20.7
2014-Aug-17 05:50S 28°52' E 056°12'1 1.0 1025.8 19.5
2014-Aug-17 04:50S 28°53' E 056°11'0 0.0 1026.4 19.2
2014-Aug-17 03:50S 28°53' E 056°11'1 1.5 1025.5 19.2
2014-Aug-17 02:50S 28°54' E 056°10'2 1.1 1023.9 19.3
2014-Aug-17 00:50S 28°56' E 056°08'1 1.4 1022.3 19.5
2014-Aug-16 23:50S 28°57' E 056°07'3 1.4 1022.8 19.4
2014-Aug-16 21:50S 28°58' E 056°05'0 0.0 1022.4 18.9
2014-Aug-16 20:50S 28°58' E 056°05'2 1.0 1023.4 18.7
2014-Aug-16 18:50S 28°59' E 056°02'1 0.5 1023.6 19.1
2014-Aug-16 17:50S 28°59' E 056°02'1 0.8 1024.4 19.5
2014-Aug-16 16:50S 28°59' E 056°01'3 1.1 1025.0 19.6
2014-Aug-16 13:50S 28°58' E 055°57'0 0.0 1009.3 19.7
2014-Aug-16 12:50S 28°58' E 055°57'3 3.1 1023.4 19.9
2014-Aug-16 11:50S 28°58' E 055°53'0 0.0 1024.1 20.1
2014-Aug-16 10:50S 28°58' E 055°53'3 3.0 1021.1 19.7
2014-Aug-16 09:50S 28°58' E 055°50'3 3.0 1024.6 19.8
2014-Aug-16 08:50S 28°58' E 055°53'3 3.0 1025.9 19.9
2014-Aug-16 07:50S 28°58' E 055°50'0 0.2 1026.8 19.7
2014-Aug-16 05:50S 28°58' E 055°49'1 0.6 1031.9 19.5
2014-Aug-16 04:50S 28°58' E 055°49'1 0.7 1034.3 19.5
2014-Aug-16 03:50S 28°58' E 055°48'1 0.4 1035.3 19.5
2014-Aug-16 01:50S 28°58' E 055°47'1 0.3 1025.7 19.5
2014-Aug-15 23:50S 28°58' E 055°46'1 1.0 1026.2 19.2
2014-Aug-15 22:50S 28°58' E 055°45'0 0.1 1026.6 19.4
2014-Aug-15 21:50S 28°58' E 055°45'0 0.2 1029.4 19.3
2014-Aug-15 20:50S 28°58' E 055°45'0 0.2 1029.1 19.3
2014-Aug-15 18:50S 28°59' E 055°45'0 0.1 1029.6 19.4
2014-Aug-15 16:50S 28°59' E 055°45'1 0.3 1029.0 19.5
2014-Aug-15 14:50S 28°59' E 055°45'1 0.7 1026.8 19.6
2014-Aug-15 13:50S 28°60' E 055°45'1 0.7 1019.6 19.6
2014-Aug-15 12:50S 29°00' E 055°44'1 0.9 1022.6 19.5
2014-Aug-15 11:50S 29°01' E 055°44'0 0.0 1026.6 19.6
2014-Aug-15 10:50S 29°01' E 055°44'0 0.0 1028.8 19.5
2014-Aug-15 09:50S 29°01' E 055°44'1 1.5 1031.5 19.5
2014-Aug-15 08:50S 29°02' E 055°43'1 0.7 1031.0 19.3
2014-Aug-15 06:50S 29°03' E 055°42'0 0.0 1034.1 19.2
2014-Aug-15 05:50S 29°03' E 055°42'1 0.8 1034.1 19.2
2014-Aug-15 04:50S 29°03' E 055°41'1 0.7 1035.6 19.1
2014-Aug-15 03:50S 29°03' E 055°40'0 0.2 1039.4 19.1
2014-Aug-15 01:50S 29°03' E 055°40'1 0.7 1029.9 19.1
2014-Aug-14 23:50S 29°03' E 055°39'1 0.3 1029.8 19.1
2014-Aug-14 21:50S 29°03' E 055°39'0 0.2 1031.2 19.1
2014-Aug-14 19:50S 29°03' E 055°39'0 0.0 1030.7 19.1
2014-Aug-14 18:50S 29°03' E 055°39'0 0.0 1033.2 19.1
2014-Aug-14 17:50S 29°03' E 055°39'0 0.1 1032.8 19.1
2014-Aug-14 16:50S 29°03' E 055°39'1 0.7 1032.7 19.1
2014-Aug-14 15:50S 29°03' E 055°39'1 0.3 1031.9 19.1
2014-Aug-14 13:50S 29°04' E 055°38'0 0.1 1026.3 19.1
2014-Aug-14 12:50S 29°04' E 055°38'1 0.6 1028.5 19.1
2014-Aug-14 11:50S 29°04' E 055°39'0 0.3 1030.2 19.0
2014-Aug-14 10:50S 29°05' E 055°39'0 0.0 1032.1 19.0
2014-Aug-14 09:50S 29°05' E 055°39'1 0.9 1031.1 18.9
2014-Aug-14 08:50S 29°05' E 055°38'1 0.5 1031.0 18.7
2014-Aug-14 05:50S 29°07' E 055°37'0 0.3 1033.9 18.4
2014-Aug-14 04:50S 29°07' E 055°37'1 1.3 1035.4 18.4
2014-Aug-14 03:50S 29°08' E 055°37'1 0.6 1034.1 18.3
2014-Aug-14 02:50S 29°08' E 055°38'0 0.0 1029.4 18.3
2014-Aug-14 00:50S 29°08' E 055°38'0 0.0 1029.7 18.2
2014-Aug-13 23:50S 29°08' E 055°38'1 1.0 1030.6 18.2
2014-Aug-13 22:50S 29°09' E 055°39'0 0.4 1029.1 18.2
2014-Aug-13 21:50S 29°09' E 055°39'1 1.1 1030.1 18.2
2014-Aug-13 20:50S 29°10' E 055°39'1 1.4 1030.3 18.2
2014-Aug-13 19:50S 29°11' E 055°40'1 0.3 1031.3 18.2
2014-Aug-13 17:50S 29°12' E 055°40'1 0.6 1030.5 18.2
2014-Aug-13 16:50S 29°13' E 055°40'1 0.7 1030.1 18.2
2014-Aug-13 15:50S 29°13' E 055°40'1 0.3 1029.0 18.2
2014-Aug-13 13:50S 29°14' E 055°40'1 0.8 1025.7 18.2
2014-Aug-13 12:50S 29°14' E 055°41'1 0.3 1024.5 18.2
2014-Aug-13 09:50S 29°15' E 055°41'0 0.1 1031.9 18.2
2014-Aug-13 08:50S 29°15' E 055°41'1 0.4 1031.2 18.3
2014-Aug-13 05:50S 29°16' E 055°42'0 0.2 1035.8 18.2
2014-Aug-13 03:50S 29°16' E 055°42'0 0.1 1037.7 18.2
2014-Aug-13 02:50S 29°16' E 055°42'1 0.3 1030.9 18.2
2014-Aug-13 00:50S 29°17' E 055°43'0 0.4 1031.8 18.2
2014-Aug-12 23:50S 29°17' E 055°43'0 0.1 1030.3 18.2
2014-Aug-12 21:50S 29°17' E 055°43'1 0.3 1030.8 18.3
2014-Aug-12 19:50S 29°16' E 055°44'1 0.6 1030.0 18.3
2014-Aug-12 17:50S 29°17' E 055°45'1 1.5 1032.9 18.3
2014-Aug-12 16:50S 29°18' E 055°46'1 0.3 1032.9 18.3
2014-Aug-12 13:50S 29°18' E 055°47'1 1.4 1027.4 18.3
2014-Aug-12 12:50S 29°19' E 055°48'0 0.0 1028.0 18.3
2014-Aug-12 11:50S 29°19' E 055°48'0 0.0 1027.6 18.3
2014-Aug-12 10:50S 29°19' E 055°48'1 0.7 1028.4 18.3
2014-Aug-12 08:50S 29°21' E 055°48'   1036.1 18.3
Track history (hours):
 
Tides and Currents Weather Stations Pressure Air Temp Water Temp Dewpoint Dewpoint Depression Visibility Wind Speed Wind Dir Waves Ship Positions

Drifting buoy 16575

Last reported at 2014-Aug-22 06:50 UTC. Time now 2014-Aug-22 07:58 UTC.
Position S 27°59' E 057°54'.

Barometer 1017.1 mb
Water temperature 21.5 ° C

Date/timePositionNaut miles runAvg speedWind from/ knotsBaromVisibWave heightAir tempDewpointWater temp
2014-Aug-22 06:50S 27°59' E 057°54'0 0.0 1017.1 21.5
2014-Aug-22 05:50S 27°59' E 057°54'3 1.7 1020.7 21.5
2014-Aug-22 03:50S 27°56' E 057°56'3 1.4 1027.1 21.4
2014-Aug-22 01:50S 27°54' E 057°57'2 2.0 1018.3 21.3
2014-Aug-22 00:50S 27°52' E 057°58'0 0.0 1018.2 21.3
2014-Aug-21 23:50S 27°52' E 057°58'2 2.0 1018.3 21.3
2014-Aug-21 22:50S 27°50' E 057°58'1 0.9 1018.2 21.3
2014-Aug-21 21:50S 27°49' E 057°58'2 1.2 1018.9 21.3
2014-Aug-21 19:50S 27°47' E 057°57'2 2.2 1019.3 21.3
2014-Aug-21 18:50S 27°45' E 057°56'1 0.9 1019.4 21.3
2014-Aug-21 17:50S 27°44' E 057°55'1 1.2 1018.8 21.4
2014-Aug-21 16:50S 27°44' E 057°54'3 1.4 1021.3 21.4
2014-Aug-21 14:50S 27°42' E 057°51'2 2.5 1018.5 21.4
2014-Aug-21 13:50S 27°43' E 057°49'1 0.7 1015.7 21.5
2014-Aug-21 12:50S 27°43' E 057°48'2 2.5 1019.8 21.5
2014-Aug-21 11:50S 27°44' E 057°45'1 1.1 1017.2 21.5
2014-Aug-21 10:50S 27°44' E 057°44'3 3.0 1022.1 21.5
2014-Aug-21 09:50S 27°46' E 057°41'4 3.9 1018.1 21.5
2014-Aug-21 08:50S 27°47' E 057°37'2 0.5 1027.2 21.5
2014-Aug-21 05:50S 27°49' E 057°36'1 1.4 1028.8 21.5
2014-Aug-21 04:50S 27°50' E 057°35'1 1.2 1028.6 21.6
2014-Aug-21 03:50S 27°50' E 057°34'2 1.8 1023.7 21.6
2014-Aug-21 02:50S 27°51' E 057°32'1 1.0 1025.2 21.6
2014-Aug-21 01:50S 27°52' E 057°31'1 0.8 1021.6 21.6
2014-Aug-21 00:50S 27°52' E 057°31'1 1.4 1022.7 21.7
2014-Aug-20 23:50S 27°54' E 057°30'0 0.1 1023.2 21.7
2014-Aug-20 22:50S 27°54' E 057°30'1 0.7 1023.7 21.8
2014-Aug-20 21:50S 27°54' E 057°30'2 1.7 1023.1 21.8
2014-Aug-20 20:50S 27°56' E 057°30'2 2.2 1024.3 21.8
2014-Aug-20 19:50S 27°58' E 057°29'2 1.2 1024.4 21.8
2014-Aug-20 17:50S 28°01' E 057°28'1 1.1 1025.9 21.9
2014-Aug-20 16:50S 28°02' E 057°28'4 1.3 1025.5 21.9
2014-Aug-20 13:50S 28°05' E 057°26'2 2.2 1021.9 22.0
2014-Aug-20 12:50S 28°07' E 057°25'1 0.9 1023.0 22.0
2014-Aug-20 11:50S 28°08' E 057°24'3 3.3 1019.8 22.0
2014-Aug-20 10:50S 28°11' E 057°22'0 0.0 1023.9 22.0
2014-Aug-20 09:50S 28°11' E 057°22'0 0.0 1025.0 22.0
2014-Aug-20 08:50S 28°11' E 057°22'4 1.4 1026.8 21.9
2014-Aug-20 05:50S 28°14' E 057°19'1 1.0 1031.5 21.9
2014-Aug-20 04:50S 28°14' E 057°18'2 2.5 1034.1 21.8
2014-Aug-20 03:50S 28°15' E 057°15'0 0.0 1031.5 21.8
2014-Aug-20 02:50S 28°15' E 057°15'1 1.3 1029.8 21.8
2014-Aug-20 01:50S 28°15' E 057°14'0 0.4 1028.9 21.9
2014-Aug-20 00:50S 28°15' E 057°13'1 0.7 1029.3 21.8
2014-Aug-19 22:50S 28°16' E 057°12'0 0.0 1029.0 21.6
2014-Aug-19 21:50S 28°16' E 057°12'3 1.0 1030.9 21.6
2014-Aug-19 18:50S 28°19' E 057°12'0 0.0 1030.6 21.6
2014-Aug-19 17:50S 28°19' E 057°12'1 0.9 1030.3 21.6
2014-Aug-19 16:50S 28°20' E 057°12'2 1.2 1030.4 21.6
2014-Aug-19 14:50S 28°22' E 057°11'1 1.1 1029.3 21.7
2014-Aug-19 13:50S 28°23' E 057°11'1 0.5 1026.3 21.8
2014-Aug-19 12:50S 28°24' E 057°10'2 2.2 1024.2 21.8
2014-Aug-19 11:50S 28°26' E 057°09'2 2.3 1026.5 21.8
2014-Aug-19 10:50S 28°27' E 057°07'0 0.0 1027.3 21.8
2014-Aug-19 08:50S 28°27' E 057°07'6 1.9 1032.5 21.8
2014-Aug-19 05:50S 28°30' E 057°01'1 0.9 1038.5 21.8
2014-Aug-19 04:50S 28°30' E 057°01'1 0.7 1040.2 21.8
2014-Aug-19 02:50S 28°31' E 056°59'1 1.5 1031.1 21.8
2014-Aug-19 01:50S 28°31' E 056°57'1 0.8 1032.4 21.8
2014-Aug-19 00:50S 28°31' E 056°56'1 1.4 1031.1 21.8
2014-Aug-18 23:50S 28°31' E 056°55'0 0.4 1032.0 21.9
2014-Aug-18 22:50S 28°31' E 056°54'2 0.8 1032.3 21.9
2014-Aug-18 20:50S 28°32' E 056°53'3 2.8 1031.9 21.9
2014-Aug-18 19:50S 28°33' E 056°50'0 0.2 1032.1 21.9
2014-Aug-18 17:50S 28°34' E 056°50'1 1.1 1032.1 21.8
2014-Aug-18 16:50S 28°34' E 056°49'1 0.8 1032.1 21.8
2014-Aug-18 15:50S 28°35' E 056°48'0 0.0 1031.8 21.8
2014-Aug-18 14:50S 28°35' E 056°48'2 1.7 1029.9 21.9
2014-Aug-18 13:50S 28°36' E 056°48'2 2.0 1027.8 21.9
2014-Aug-18 12:50S 28°38' E 056°46'1 1.0 1025.1 21.9
2014-Aug-18 11:50S 28°39' E 056°46'0 0.0 1031.5 22.0
2014-Aug-18 10:50S 28°39' E 056°46'3 2.7 1031.0 22.0
2014-Aug-18 09:50S 28°41' E 056°44'6 5.5 1031.0 22.0
2014-Aug-18 08:50S 28°43' E 056°39'0 0.0 1032.4 22.1
2014-Aug-18 05:50S 28°43' E 056°39'2 1.8 1035.6 22.0
2014-Aug-18 04:50S 28°44' E 056°36'2 2.4 1033.0 22.0
2014-Aug-18 03:50S 28°44' E 056°34'0 0.0 1034.0 21.9
2014-Aug-18 02:50S 28°44' E 056°34'1 1.1 1030.4 21.9
2014-Aug-18 01:50S 28°45' E 056°33'0 0.2 1030.7 21.9
2014-Aug-18 00:50S 28°45' E 056°33'5 1.2 1029.6 21.9
2014-Aug-17 20:50S 28°46' E 056°28'3 1.5 1029.7 21.9
2014-Aug-17 18:50S 28°47' E 056°25'1 0.7 1029.6 21.9
2014-Aug-17 17:50S 28°47' E 056°24'4 4.3 1029.7 21.9
2014-Aug-17 16:50S 28°49' E 056°19'0 0.0 1029.8 21.8
2014-Aug-17 13:50S 28°49' E 056°19'3 1.4 1026.0 21.6
2014-Aug-17 11:50S 28°50' E 056°16'0 0.0 1024.2 21.2
2014-Aug-17 10:50S 28°50' E 056°16'5 4.6 1026.5 21.1
2014-Aug-17 09:50S 28°52' E 056°11'1 0.2 1026.1 20.7
2014-Aug-17 05:50S 28°52' E 056°12'1 1.0 1025.8 19.5
2014-Aug-17 04:50S 28°53' E 056°11'0 0.0 1026.4 19.2
2014-Aug-17 03:50S 28°53' E 056°11'1 1.5 1025.5 19.2
2014-Aug-17 02:50S 28°54' E 056°10'2 1.1 1023.9 19.3
2014-Aug-17 00:50S 28°56' E 056°08'1 1.4 1022.3 19.5
2014-Aug-16 23:50S 28°57' E 056°07'3 1.4 1022.8 19.4
2014-Aug-16 21:50S 28°58' E 056°05'0 0.0 1022.4 18.9
2014-Aug-16 20:50S 28°58' E 056°05'2 1.0 1023.4 18.7
2014-Aug-16 18:50S 28°59' E 056°02'1 0.5 1023.6 19.1
2014-Aug-16 17:50S 28°59' E 056°02'1 0.8 1024.4 19.5
2014-Aug-16 16:50S 28°59' E 056°01'3 1.1 1025.0 19.6
2014-Aug-16 13:50S 28°58' E 055°57'0 0.0 1009.3 19.7
2014-Aug-16 12:50S 28°58' E 055°57'3 3.1 1023.4 19.9
2014-Aug-16 11:50S 28°58' E 055°53'0 0.0 1024.1 20.1
2014-Aug-16 10:50S 28°58' E 055°53'3 3.0 1021.1 19.7
2014-Aug-16 09:50S 28°58' E 055°50'3 3.0 1024.6 19.8
2014-Aug-16 08:50S 28°58' E 055°53'3 3.0 1025.9 19.9
2014-Aug-16 07:50S 28°58' E 055°50'0 0.2 1026.8 19.7
2014-Aug-16 05:50S 28°58' E 055°49'1 0.6 1031.9 19.5
2014-Aug-16 04:50S 28°58' E 055°49'1 0.7 1034.3 19.5
2014-Aug-16 03:50S 28°58' E 055°48'1 0.4 1035.3 19.5
2014-Aug-16 01:50S 28°58' E 055°47'1 0.3 1025.7 19.5
2014-Aug-15 23:50S 28°58' E 055°46'1 1.0 1026.2 19.2
2014-Aug-15 22:50S 28°58' E 055°45'0 0.1 1026.6 19.4
2014-Aug-15 21:50S 28°58' E 055°45'0 0.2 1029.4 19.3
2014-Aug-15 20:50S 28°58' E 055°45'0 0.2 1029.1 19.3
2014-Aug-15 18:50S 28°59' E 055°45'0 0.1 1029.6 19.4
2014-Aug-15 16:50S 28°59' E 055°45'1 0.3 1029.0 19.5
2014-Aug-15 14:50S 28°59' E 055°45'1 0.7 1026.8 19.6
2014-Aug-15 13:50S 28°60' E 055°45'1 0.7 1019.6 19.6
2014-Aug-15 12:50S 29°00' E 055°44'1 0.9 1022.6 19.5
2014-Aug-15 11:50S 29°01' E 055°44'0 0.0 1026.6 19.6
2014-Aug-15 10:50S 29°01' E 055°44'0 0.0 1028.8 19.5
2014-Aug-15 09:50S 29°01' E 055°44'1 1.5 1031.5 19.5
2014-Aug-15 08:50S 29°02' E 055°43'1 0.7 1031.0 19.3
2014-Aug-15 06:50S 29°03' E 055°42'0 0.0 1034.1 19.2
2014-Aug-15 05:50S 29°03' E 055°42'1 0.8 1034.1 19.2
2014-Aug-15 04:50S 29°03' E 055°41'1 0.7 1035.6 19.1
2014-Aug-15 03:50S 29°03' E 055°40'0 0.2 1039.4 19.1
2014-Aug-15 01:50S 29°03' E 055°40'1 0.7 1029.9 19.1
2014-Aug-14 23:50S 29°03' E 055°39'1 0.3 1029.8 19.1
2014-Aug-14 21:50S 29°03' E 055°39'0 0.2 1031.2 19.1
2014-Aug-14 19:50S 29°03' E 055°39'0 0.0 1030.7 19.1
2014-Aug-14 18:50S 29°03' E 055°39'0 0.0 1033.2 19.1
2014-Aug-14 17:50S 29°03' E 055°39'0 0.1 1032.8 19.1
2014-Aug-14 16:50S 29°03' E 055°39'1 0.7 1032.7 19.1
2014-Aug-14 15:50S 29°03' E 055°39'1 0.3 1031.9 19.1
2014-Aug-14 13:50S 29°04' E 055°38'0 0.1 1026.3 19.1
2014-Aug-14 12:50S 29°04' E 055°38'1 0.6 1028.5 19.1
2014-Aug-14 11:50S 29°04' E 055°39'0 0.3 1030.2 19.0
2014-Aug-14 10:50S 29°05' E 055°39'0 0.0 1032.1 19.0
2014-Aug-14 09:50S 29°05' E 055°39'1 0.9 1031.1 18.9
2014-Aug-14 08:50S 29°05' E 055°38'1 0.5 1031.0 18.7
2014-Aug-14 05:50S 29°07' E 055°37'0 0.3 1033.9 18.4
2014-Aug-14 04:50S 29°07' E 055°37'1 1.3 1035.4 18.4
2014-Aug-14 03:50S 29°08' E 055°37'1 0.6 1034.1 18.3
2014-Aug-14 02:50S 29°08' E 055°38'0 0.0 1029.4 18.3
2014-Aug-14 00:50S 29°08' E 055°38'0 0.0 1029.7 18.2
2014-Aug-13 23:50S 29°08' E 055°38'1 1.0 1030.6 18.2
2014-Aug-13 22:50S 29°09' E 055°39'0 0.4 1029.1 18.2
2014-Aug-13 21:50S 29°09' E 055°39'1 1.1 1030.1 18.2
2014-Aug-13 20:50S 29°10' E 055°39'1 1.4 1030.3 18.2
2014-Aug-13 19:50S 29°11' E 055°40'1 0.3 1031.3 18.2
2014-Aug-13 17:50S 29°12' E 055°40'1 0.6 1030.5 18.2
2014-Aug-13 16:50S 29°13' E 055°40'1 0.7 1030.1 18.2
2014-Aug-13 15:50S 29°13' E 055°40'1 0.3 1029.0 18.2
2014-Aug-13 13:50S 29°14' E 055°40'1 0.8 1025.7 18.2
2014-Aug-13 12:50S 29°14' E 055°41'1 0.3 1024.5 18.2
2014-Aug-13 09:50S 29°15' E 055°41'0 0.1 1031.9 18.2
2014-Aug-13 08:50S 29°15' E 055°41'1 0.4 1031.2 18.3
2014-Aug-13 05:50S 29°16' E 055°42'0 0.2 1035.8 18.2
2014-Aug-13 03:50S 29°16' E 055°42'0 0.1 1037.7 18.2
2014-Aug-13 02:50S 29°16' E 055°42'1 0.3 1030.9 18.2
2014-Aug-13 00:50S 29°17' E 055°43'0 0.4 1031.8 18.2
2014-Aug-12 23:50S 29°17' E 055°43'0 0.1 1030.3 18.2
2014-Aug-12 21:50S 29°17' E 055°43'1 0.3 1030.8 18.3
2014-Aug-12 19:50S 29°16' E 055°44'1 0.6 1030.0 18.3
2014-Aug-12 17:50S 29°17' E 055°45'1 1.5 1032.9 18.3
2014-Aug-12 16:50S 29°18' E 055°46'1 0.3 1032.9 18.3
2014-Aug-12 13:50S 29°18' E 055°47'1 1.4 1027.4 18.3
2014-Aug-12 12:50S 29°19' E 055°48'0 0.0 1028.0 18.3
2014-Aug-12 11:50S 29°19' E 055°48'0 0.0 1027.6 18.3
2014-Aug-12 10:50S 29°19' E 055°48'1 0.7 1028.4 18.3
2014-Aug-12 08:50S 29°21' E 055°48'   1036.1 18.3

Dump ship's entire track history